createdAt,value
2018-03-06T00:00:27.049Z,39.13
2018-03-06T00:02:57.268Z,39.58
2018-03-06T00:05:26.986Z,38.40
2018-03-06T00:07:56.998Z,38.63
2018-03-06T00:10:26.781Z,37.38
2018-03-06T00:12:56.799Z,38.50
2018-03-06T00:15:27.064Z,38.08
2018-03-06T00:17:57.006Z,38.05
2018-03-06T00:20:27.534Z,38.65
2018-03-06T00:22:57.854Z,37.83
2018-03-06T00:25:27.949Z,37.88
2018-03-06T00:27:59.536Z,38.05
2018-03-06T00:30:29.085Z,38.10
2018-03-06T00:33:00.152Z,38.63
2018-03-06T00:35:31.617Z,38.05
2018-03-06T00:38:05.123Z,36.22
2018-03-06T00:40:35.514Z,38.60
2018-03-06T00:43:06.660Z,36.70
2018-03-06T00:45:36.245Z,38.15
2018-03-06T00:48:06.513Z,37.92
2018-03-06T00:50:36.498Z,38.15
2018-03-06T00:53:06.421Z,38.50
2018-03-06T00:55:36.474Z,37.38
2018-03-06T00:58:06.104Z,37.53
2018-03-06T01:00:35.785Z,37.00
2018-03-06T01:03:07.732Z,38.60
2018-03-06T01:05:37.657Z,39.25
2018-03-06T01:08:09.589Z,38.78
2018-03-06T01:10:39.364Z,37.80
2018-03-06T01:13:09.261Z,38.78
2018-03-06T01:15:41.397Z,38.00
2018-03-06T01:18:11.330Z,38.38
2018-03-06T01:20:41.233Z,41.35
2018-03-06T01:23:11.337Z,41.42
2018-03-06T01:25:41.505Z,39.95
2018-03-06T01:28:13.155Z,40.10
2018-03-06T01:30:43.533Z,38.65
2018-03-06T01:33:13.861Z,40.42
2018-03-06T01:35:43.591Z,38.00
2018-03-06T01:38:13.655Z,39.40
2018-03-06T01:40:44.009Z,39.35
2018-03-06T01:43:14.183Z,38.30
2018-03-06T01:45:43.980Z,41.33
2018-03-06T01:48:13.944Z,42.97
2018-03-06T01:50:44.030Z,42.88
2018-03-06T01:53:14.752Z,44.28
2018-03-06T01:55:44.437Z,43.92
2018-03-06T01:58:14.434Z,43.70
2018-03-06T02:00:44.221Z,42.75
2018-03-06T02:03:14.622Z,43.95
2018-03-06T02:05:45.336Z,42.60
2018-03-06T02:08:15.139Z,44.50
2018-03-06T02:10:45.178Z,44.47
2018-03-06T02:13:16.422Z,42.13
2018-03-06T02:15:48.155Z,45.53
2018-03-06T02:18:18.880Z,44.33
2018-03-06T02:20:49.186Z,43.17
2018-03-06T02:23:19.147Z,45.72
2018-03-06T02:25:49.144Z,44.63
2018-03-06T02:28:19.730Z,45.08
2018-03-06T02:30:49.387Z,43.85
2018-03-06T02:33:19.179Z,45.85
2018-03-06T02:35:49.101Z,46.13
2018-03-06T02:38:19.019Z,44.60
2018-03-06T02:40:49.282Z,43.90
2018-03-06T02:43:19.193Z,46.60
2018-03-06T02:45:49.112Z,46.47
2018-03-06T02:48:19.387Z,46.22
2018-03-06T02:50:50.192Z,43.92
2018-03-06T02:53:19.846Z,46.15
2018-03-06T02:55:51.356Z,44.28
2018-03-06T02:58:21.177Z,44.28
2018-03-06T03:00:50.997Z,44.50
2018-03-06T03:03:20.778Z,42.85
2018-03-06T03:05:50.445Z,43.90
2018-03-06T03:08:20.391Z,45.95
2018-03-06T03:10:51.142Z,44.50
2018-03-06T03:13:22.840Z,42.85
2018-03-06T03:15:52.583Z,45.75
2018-03-06T03:18:22.763Z,44.83
2018-03-06T03:20:52.617Z,44.60
2018-03-06T03:23:23.831Z,44.70
2018-03-06T03:25:53.863Z,43.45
2018-03-06T03:28:24.039Z,44.13
2018-03-06T03:30:56.675Z,39.42
2018-03-06T03:33:27.625Z,42.45
2018-03-06T03:36:01.914Z,38.33
2018-03-06T03:38:33.340Z,39.88
2018-03-06T03:41:04.998Z,38.92
2018-03-06T03:43:35.178Z,39.40
2018-03-06T03:46:08.446Z,37.08
2018-03-06T03:48:38.063Z,38.95
2018-03-06T03:51:08.449Z,39.28
2018-03-06T03:53:38.688Z,35.63
2018-03-06T03:56:11.907Z,37.75
2018-03-06T03:58:42.163Z,38.90
2018-03-06T04:01:13.417Z,36.05
2018-03-06T04:03:42.846Z,37.75
2018-03-06T04:06:12.601Z,36.72
2018-03-06T04:08:43.327Z,39.05
2018-03-06T04:11:13.077Z,37.88
2018-03-06T04:13:42.913Z,35.50
2018-03-06T04:16:12.829Z,35.22
2018-03-06T04:18:44.052Z,36.80
2018-03-06T04:21:14.595Z,37.90
2018-03-06T04:23:44.181Z,38.85
2018-03-06T04:26:14.648Z,38.25
2018-03-06T04:28:45.668Z,39.28
2018-03-06T04:31:16.041Z,38.35
2018-03-06T04:33:45.689Z,40.65
2018-03-06T04:36:16.851Z,40.20
2018-03-06T04:38:47.674Z,36.72
2018-03-06T04:41:17.944Z,38.47
2018-03-06T04:43:48.715Z,38.95
2018-03-06T04:46:19.410Z,41.37
2018-03-06T04:48:49.099Z,41.88
2018-03-06T04:51:18.652Z,39.72
2018-03-06T04:53:48.572Z,43.25
2018-03-06T04:56:18.888Z,44.15
2018-03-06T04:58:49.220Z,46.60
2018-03-06T05:01:20.369Z,48.83
2018-03-06T05:03:51.251Z,48.78
2018-03-06T05:06:21.497Z,50.08
2018-03-06T05:08:51.388Z,50.65
2018-03-06T05:11:21.047Z,47.80
2018-03-06T05:13:50.628Z,50.92
2018-03-06T05:16:20.625Z,52.70
2018-03-06T05:18:50.965Z,49.97
2018-03-06T05:21:21.613Z,49.67
2018-03-06T05:23:51.636Z,51.63
2018-03-06T05:26:22.850Z,49.58
2018-03-06T05:28:53.445Z,46.80
2018-03-06T05:31:23.814Z,47.92
2018-03-06T05:33:53.912Z,48.53
2018-03-06T05:36:23.577Z,47.28
2018-03-06T05:38:53.752Z,45.58
2018-03-06T05:41:23.224Z,47.58
2018-03-06T05:43:53.803Z,45.00
2018-03-06T05:46:23.520Z,46.80
2018-03-06T05:48:52.964Z,45.38
2018-03-06T05:51:23.669Z,45.60
2018-03-06T05:53:53.621Z,44.65
2018-03-06T05:56:23.047Z,44.53
2018-03-06T05:58:53.135Z,44.90
2018-03-06T06:01:23.209Z,43.70
2018-03-06T06:03:53.733Z,44.28
2018-03-06T06:06:23.892Z,42.85
2018-03-06T06:08:53.995Z,42.38
2018-03-06T06:11:23.634Z,43.60
2018-03-06T06:13:53.588Z,42.80
2018-03-06T06:16:23.376Z,42.25
2018-03-06T06:18:52.888Z,42.95
2018-03-06T06:21:22.985Z,42.92
2018-03-06T06:23:52.454Z,42.33
2018-03-06T06:26:22.744Z,41.50
2018-03-06T06:28:52.916Z,40.00
2018-03-06T06:31:22.597Z,40.65
2018-03-06T06:33:52.482Z,41.65
2018-03-06T06:36:22.581Z,38.15
2018-03-06T06:38:52.813Z,37.83
2018-03-06T06:41:23.303Z,40.35
2018-03-06T06:43:53.278Z,37.50
2018-03-06T06:46:22.946Z,39.33
2018-03-06T06:48:52.821Z,37.25
2018-03-06T06:51:23.409Z,40.72
2018-03-06T06:53:53.059Z,39.88
2018-03-06T06:56:22.582Z,42.42
2018-03-06T06:58:53.439Z,39.88
2018-03-06T07:01:23.459Z,42.78
2018-03-06T07:03:54.761Z,41.47
2018-03-06T07:06:24.589Z,44.20
2018-03-06T07:08:54.978Z,42.58
2018-03-06T07:11:26.216Z,41.72
2018-03-06T07:13:57.570Z,40.72
2018-03-06T07:16:27.452Z,41.40
2018-03-06T07:18:57.601Z,40.38
2018-03-06T07:21:27.862Z,39.97
2018-03-06T07:23:58.594Z,42.80
2018-03-06T07:26:29.244Z,42.88
2018-03-06T07:28:59.506Z,40.17
2018-03-06T07:31:29.677Z,42.08
2018-03-06T07:34:03.297Z,42.72
2018-03-06T07:36:33.093Z,42.95
2018-03-06T07:39:04.721Z,63.40
2018-03-06T07:41:35.304Z,75.00
2018-03-06T07:44:07.791Z,106.28
2018-03-06T07:46:37.925Z,53.53
2018-03-06T07:49:07.600Z,109.25
2018-03-06T07:51:37.334Z,68.57
2018-03-06T07:54:07.468Z,127.50
2018-03-06T07:56:36.974Z,48.90
2018-03-06T07:59:06.704Z,62.15
2018-03-06T08:01:36.550Z,117.78
2018-03-06T08:04:06.253Z,164.70
2018-03-06T08:06:35.845Z,70.80
2018-03-06T08:09:05.990Z,41.17
2018-03-06T08:11:35.858Z,83.20
2018-03-06T08:14:07.319Z,67.78
2018-03-06T08:16:37.425Z,64.18
2018-03-06T08:19:06.884Z,45.05
2018-03-06T08:21:36.831Z,64.40
2018-03-06T08:24:07.262Z,77.50
2018-03-06T08:26:36.820Z,62.00
2018-03-06T08:29:07.223Z,38.58
2018-03-06T08:31:37.081Z,39.03
2018-03-06T08:34:06.685Z,42.92
2018-03-06T08:36:36.933Z,45.30
2018-03-06T08:39:07.275Z,36.15
2018-03-06T08:41:36.964Z,36.05
2018-03-06T08:44:08.657Z,36.95
2018-03-06T08:46:38.990Z,36.43
2018-03-06T08:49:09.293Z,43.90
2018-03-06T08:51:39.025Z,37.13
2018-03-06T08:54:09.495Z,41.30
2018-03-06T08:56:39.821Z,38.67
2018-03-06T08:59:09.802Z,38.28
2018-03-06T09:01:40.645Z,39.67
2018-03-06T09:04:10.394Z,40.80
2018-03-06T09:06:41.643Z,40.83
2018-03-06T09:09:11.488Z,38.72
2018-03-06T09:11:41.819Z,38.67
2018-03-06T09:14:12.008Z,40.17
2018-03-06T09:16:42.305Z,37.28
2018-03-06T09:19:12.325Z,38.67
2018-03-06T09:21:43.255Z,39.60
2018-03-06T09:24:13.005Z,47.90
2018-03-06T09:26:42.449Z,43.38
2018-03-06T09:29:12.631Z,37.97
2018-03-06T09:31:42.637Z,39.47
2018-03-06T09:34:12.063Z,38.03
2018-03-06T09:36:41.658Z,36.90
2018-03-06T09:39:12.149Z,37.03
2018-03-06T09:41:42.771Z,39.57
2018-03-06T09:44:12.202Z,42.90
2018-03-06T09:46:42.453Z,41.87
2018-03-06T09:49:11.916Z,38.97
2018-03-06T09:51:41.764Z,39.93
2018-03-06T09:54:11.692Z,42.70
2018-03-06T09:56:41.421Z,40.80
2018-03-06T09:59:11.509Z,40.20
2018-03-06T10:01:42.595Z,40.13
2018-03-06T10:04:12.554Z,39.20
2018-03-06T10:06:43.715Z,41.37
2018-03-06T10:09:13.632Z,41.90
2018-03-06T10:11:43.706Z,40.40
2018-03-06T10:14:14.377Z,41.67
2018-03-06T10:16:44.744Z,42.47
2018-03-06T10:19:14.942Z,43.63
2018-03-06T10:21:45.901Z,45.10
2018-03-06T10:24:16.561Z,42.27
2018-03-06T10:26:46.803Z,42.80
2018-03-06T10:29:17.373Z,41.30
2018-03-06T10:31:47.859Z,42.80
2018-03-06T10:34:17.961Z,46.37
2018-03-06T10:36:47.808Z,46.60
2018-03-06T10:39:18.562Z,46.87
2018-03-06T10:41:48.797Z,44.07
2018-03-06T10:44:19.208Z,46.00
2018-03-06T10:46:49.646Z,44.40
2018-03-06T10:49:19.248Z,46.20
2018-03-06T10:51:48.768Z,48.47
2018-03-06T10:54:19.069Z,47.87
2018-03-06T10:56:48.779Z,43.77
2018-03-06T10:59:18.953Z,45.70
2018-03-06T11:01:53.358Z,46.27
2018-03-06T11:04:23.305Z,46.40
2018-03-06T11:06:54.070Z,45.00
2018-03-06T11:09:23.877Z,45.50
2018-03-06T11:11:53.807Z,44.50
2018-03-06T11:14:23.609Z,43.80
2018-03-06T11:16:54.346Z,45.73
2018-03-06T11:19:24.263Z,47.33
2018-03-06T11:21:54.054Z,44.50
2018-03-06T11:24:24.506Z,44.50
2018-03-06T11:26:53.935Z,43.70
2018-03-06T11:29:23.520Z,43.00
2018-03-06T11:31:53.545Z,43.87
2018-03-06T11:34:23.275Z,43.70
2018-03-06T11:36:55.148Z,44.20
2018-03-06T11:39:24.785Z,45.43
2018-03-06T11:41:55.577Z,41.87
2018-03-06T11:44:26.901Z,44.83
2018-03-06T11:46:57.590Z,43.47
2018-03-06T11:49:27.677Z,43.80
2018-03-06T11:51:57.201Z,44.07
2018-03-06T11:54:26.702Z,45.33
2018-03-06T11:56:56.447Z,43.87
2018-03-06T11:59:26.019Z,46.23
2018-03-06T12:01:56.258Z,46.10
2018-03-06T12:04:25.903Z,45.23
2018-03-06T12:06:56.904Z,45.80
2018-03-06T12:09:26.676Z,47.80
2018-03-06T12:11:56.143Z,45.63
2018-03-06T12:14:26.281Z,45.20
2018-03-06T12:16:56.177Z,47.03
2018-03-06T12:19:25.780Z,47.83
2018-03-06T12:21:55.558Z,45.23
2018-03-06T12:24:25.493Z,44.83
2018-03-06T12:26:55.083Z,45.83
2018-03-06T12:29:24.771Z,44.43
2018-03-06T12:31:54.663Z,44.57
2018-03-06T12:34:25.533Z,46.80
2018-03-06T12:36:55.131Z,49.40
2018-03-06T12:39:24.829Z,48.23
2018-03-06T12:41:55.219Z,45.43
2018-03-06T12:44:25.781Z,48.77
2018-03-06T12:46:56.134Z,46.43
2018-03-06T12:49:25.781Z,47.27
2018-03-06T12:51:55.893Z,49.57
2018-03-06T12:54:25.462Z,47.00
2018-03-06T12:56:55.833Z,47.17
2018-03-06T12:59:26.177Z,45.60
2018-03-06T13:01:55.896Z,45.97
2018-03-06T13:04:26.642Z,47.17
2018-03-06T13:06:56.492Z,45.57
2018-03-06T13:09:26.109Z,45.40
2018-03-06T13:11:55.688Z,47.93
2018-03-06T13:14:25.484Z,45.00
2018-03-06T13:16:55.739Z,47.43
2018-03-06T13:19:25.445Z,44.03
2018-03-06T13:21:55.311Z,44.30
2018-03-06T13:24:24.885Z,47.87
2018-03-06T13:26:55.292Z,44.33
2018-03-06T13:29:24.911Z,46.03
2018-03-06T13:31:54.537Z,45.67
2018-03-06T13:34:25.903Z,44.20
2018-03-06T13:36:56.139Z,46.00
2018-03-06T13:39:25.853Z,46.40
2018-03-06T13:41:56.666Z,45.73
2018-03-06T13:44:26.376Z,47.80
2018-03-06T13:46:57.077Z,47.03
2018-03-06T13:49:27.588Z,45.90
2018-03-06T13:51:58.035Z,44.50
2018-03-06T13:54:28.116Z,47.90
2018-03-06T13:56:58.296Z,46.43
2018-03-06T13:59:28.794Z,44.70
2018-03-06T14:01:58.487Z,44.80
2018-03-06T14:04:28.292Z,43.00
2018-03-06T14:06:59.030Z,44.87
2018-03-06T14:09:28.939Z,43.57
2018-03-06T14:12:01.275Z,43.57
2018-03-06T14:14:31.232Z,43.50
2018-03-06T14:17:02.899Z,42.83
2018-03-06T14:19:34.132Z,43.93
2018-03-06T14:22:05.847Z,44.53
2018-03-06T14:24:35.827Z,43.60
2018-03-06T14:27:06.725Z,44.17
2018-03-06T14:29:36.391Z,43.10
2018-03-06T14:32:07.861Z,44.97
2018-03-06T14:34:37.479Z,44.33
2018-03-06T14:37:08.009Z,46.77
2018-03-06T14:39:37.624Z,44.40
2018-03-06T14:42:07.673Z,44.30
2018-03-06T14:44:37.209Z,44.10
2018-03-06T14:47:06.699Z,44.47
2018-03-06T14:49:36.259Z,49.00
2018-03-06T14:52:06.264Z,46.93
2018-03-06T14:54:36.018Z,49.70
2018-03-06T14:57:06.722Z,47.13
2018-03-06T14:59:36.293Z,44.97
2018-03-06T15:02:05.906Z,44.20
2018-03-06T15:04:35.663Z,44.90
2018-03-06T15:07:06.644Z,43.33
2018-03-06T15:09:36.318Z,42.60
2018-03-06T15:12:06.621Z,42.70
2018-03-06T15:14:44.265Z,45.07
2018-03-06T15:17:17.863Z,44.40
2018-03-06T15:19:54.128Z,41.90
2018-03-06T15:22:24.518Z,46.17
2018-03-06T15:24:56.422Z,44.40
2018-03-06T15:27:27.033Z,45.33
2018-03-06T15:29:59.248Z,43.97
2018-03-06T15:32:30.036Z,44.40
2018-03-06T15:35:00.555Z,47.53
2018-03-06T15:37:30.076Z,43.77
2018-03-06T15:40:02.311Z,44.90
2018-03-06T15:42:33.501Z,47.80
2018-03-06T15:45:04.560Z,49.30
2018-03-06T15:47:35.400Z,49.33
2018-03-06T15:50:06.554Z,48.57
2018-03-06T15:52:36.930Z,48.90
2018-03-06T15:55:06.926Z,47.20
2018-03-06T15:57:36.622Z,49.40
2018-03-06T16:00:07.502Z,47.77
2018-03-06T16:02:37.886Z,47.97
2018-03-06T16:05:10.890Z,48.60
2018-03-06T16:07:40.885Z,47.70
2018-03-06T16:10:11.866Z,48.60
2018-03-06T16:12:42.299Z,47.57
2018-03-06T16:15:12.848Z,49.37
2018-03-06T16:17:42.812Z,46.07
2018-03-06T16:20:12.906Z,46.80
2018-03-06T16:22:43.526Z,48.27
2018-03-06T16:25:15.554Z,48.03
2018-03-06T16:27:46.268Z,50.43
2018-03-06T16:30:16.536Z,47.63
2018-03-06T16:32:47.357Z,48.97
2018-03-06T16:35:17.783Z,49.80
2018-03-06T16:37:47.547Z,48.03
2018-03-06T16:40:17.619Z,48.93
2018-03-06T16:42:47.874Z,46.13
2018-03-06T16:45:18.657Z,49.37
2018-03-06T16:47:50.012Z,51.33
2018-03-06T16:50:19.787Z,50.47
2018-03-06T16:52:50.064Z,51.30
2018-03-06T16:55:20.009Z,47.00
2018-03-06T16:57:50.258Z,48.50
2018-03-06T17:00:19.974Z,48.67
2018-03-06T17:02:50.438Z,51.30
2018-03-06T17:05:21.223Z,49.50
2018-03-06T17:07:52.171Z,51.43
2018-03-06T17:10:22.517Z,51.50
2018-03-06T17:12:52.633Z,53.13
2018-03-06T17:15:23.846Z,52.38
2018-03-06T17:17:54.332Z,53.85
2018-03-06T17:20:24.956Z,50.60
2018-03-06T17:22:56.917Z,52.75
2018-03-06T17:25:28.954Z,54.30
2018-03-06T17:27:59.414Z,51.08
2018-03-06T17:30:29.150Z,52.50
2018-03-06T17:32:59.455Z,51.80
2018-03-06T17:36:33.186Z,52.15
2018-03-06T17:39:03.768Z,51.30
2018-03-06T17:41:35.780Z,50.90
2018-03-06T17:44:05.826Z,50.92
2018-03-06T17:46:35.787Z,54.45
2018-03-06T17:49:05.796Z,55.03
2018-03-06T17:51:35.508Z,50.83
2018-03-06T17:54:05.721Z,53.20
2018-03-06T17:56:35.703Z,53.87
2018-03-06T17:59:05.573Z,51.88
2018-03-06T18:01:36.100Z,50.67
2018-03-06T18:04:07.584Z,53.00
2018-03-06T18:06:37.734Z,51.20
2018-03-06T18:09:08.066Z,52.83
2018-03-06T18:11:37.755Z,51.97
2018-03-06T18:14:08.298Z,52.67
2018-03-06T18:16:38.214Z,52.67
2018-03-06T18:19:10.182Z,50.97
2018-03-06T18:21:41.001Z,51.30
2018-03-06T18:24:13.321Z,52.90
2018-03-06T18:26:43.994Z,49.55
2018-03-06T18:29:16.416Z,50.65
2018-03-06T18:31:47.029Z,50.17
2018-03-06T18:34:16.990Z,52.13
2018-03-06T18:36:47.792Z,50.45
2018-03-06T18:39:19.275Z,52.03
2018-03-06T18:41:49.196Z,63.63
2018-03-06T18:44:18.937Z,55.03
2018-03-06T18:46:50.109Z,53.85
2018-03-06T18:49:20.152Z,54.40
2018-03-06T18:51:51.834Z,52.88
2018-03-06T18:54:22.673Z,52.70
2018-03-06T18:56:54.930Z,54.60
2018-03-06T18:59:25.868Z,54.47
2018-03-06T19:08:26.487Z,54.00
2018-03-06T19:10:56.959Z,53.25
2018-03-06T19:13:27.347Z,53.65
2018-03-06T19:15:57.987Z,52.95
2018-03-06T19:18:27.985Z,54.28
2018-03-06T19:21:01.095Z,53.70
2018-03-06T19:23:32.276Z,52.05
2018-03-06T19:26:03.908Z,57.67
2018-03-06T19:28:35.047Z,54.25
2018-03-06T19:31:05.059Z,53.25
2018-03-06T19:33:36.576Z,55.10
2018-03-06T19:36:07.254Z,52.85
2018-03-06T19:38:38.100Z,53.65
2018-03-06T19:41:08.047Z,54.88
2018-03-06T19:43:38.579Z,53.95
2018-03-06T19:46:08.712Z,52.85
2018-03-06T19:48:39.058Z,51.88
2018-03-06T19:51:10.445Z,51.85
2018-03-06T19:53:40.295Z,52.83
2018-03-06T19:56:12.721Z,53.15
2018-03-06T19:58:42.869Z,54.20
2018-03-06T20:01:12.476Z,52.45
2018-03-06T20:03:42.614Z,53.90
2018-03-06T20:06:12.211Z,52.22
2018-03-06T20:08:42.016Z,51.67
2018-03-06T20:11:11.751Z,56.42
2018-03-06T20:13:41.742Z,63.97
2018-03-06T20:16:27.800Z,71.78
2018-03-06T20:19:01.864Z,66.40
2018-03-06T20:21:31.706Z,67.10
2018-03-06T20:24:07.483Z,72.70
2018-03-06T20:26:37.011Z,55.38
2018-03-06T20:29:06.595Z,50.92
2018-03-06T20:33:43.968Z,55.92
2018-03-06T20:36:13.864Z,67.85
2018-03-06T20:38:48.430Z,61.70
2018-03-06T20:41:18.251Z,64.70
2018-03-06T20:43:47.702Z,56.00
2018-03-06T20:46:22.129Z,55.05
2018-03-06T20:48:51.597Z,54.28
2018-03-06T20:51:23.104Z,55.80
2018-03-06T20:56:05.650Z,55.83
2018-03-06T20:58:35.311Z,52.95
2018-03-06T21:01:06.822Z,54.67
2018-03-06T21:03:36.414Z,54.70
2018-03-06T21:06:06.846Z,53.83
2018-03-06T21:08:38.526Z,50.28
2018-03-06T21:11:08.048Z,51.95
2018-03-06T21:13:37.476Z,70.40
2018-03-06T21:16:07.598Z,56.63
2018-03-06T21:18:37.117Z,59.23
2018-03-06T21:21:06.639Z,59.97
2018-03-06T21:23:36.889Z,58.25
2018-03-06T21:26:08.442Z,52.35
2018-03-06T21:28:38.466Z,49.20
2018-03-06T21:31:08.266Z,55.95
2018-03-06T21:33:38.084Z,50.80
2018-03-06T21:36:07.933Z,52.70
2018-03-06T21:38:37.704Z,55.40
2018-03-06T21:41:08.340Z,56.45
2018-03-06T21:43:37.853Z,62.80
2018-03-06T21:46:07.567Z,58.97
2018-03-06T21:48:37.000Z,52.70
2018-03-06T21:51:06.725Z,54.70
2018-03-06T21:53:36.502Z,55.38
2018-03-06T21:56:06.394Z,53.95
2018-03-06T21:58:35.829Z,55.05
2018-03-06T22:01:05.658Z,54.08
2018-03-06T22:03:35.091Z,55.53
2018-03-06T22:06:06.251Z,54.42
2018-03-06T22:08:36.732Z,55.05
2018-03-06T22:11:06.581Z,54.50
2018-03-06T22:13:36.166Z,95.82
2018-03-06T22:16:06.245Z,87.50
2018-03-06T22:18:35.986Z,64.40
2018-03-06T22:21:06.628Z,68.95
2018-03-06T22:23:36.889Z,87.43
2018-03-06T22:26:06.611Z,73.60
2018-03-06T22:28:36.268Z,68.95
2018-03-06T22:31:06.085Z,64.03
2018-03-06T22:33:35.718Z,62.08
2018-03-06T22:36:05.673Z,64.22
2018-03-06T22:38:35.671Z,57.17
2018-03-06T22:41:06.905Z,57.00
2018-03-06T22:43:36.749Z,71.20
2018-03-06T22:46:06.935Z,68.75
2018-03-06T22:48:39.298Z,58.28
2018-03-06T22:51:08.970Z,60.92
2018-03-06T22:53:39.513Z,62.88
2018-03-06T22:56:10.478Z,61.50
2018-03-06T22:58:40.195Z,56.65
2018-03-06T23:01:10.292Z,59.03
2018-03-06T23:03:39.788Z,55.90
2018-03-06T23:06:10.428Z,55.53
2018-03-06T23:08:40.285Z,60.55
2018-03-06T23:11:09.971Z,62.47
2018-03-06T23:13:39.463Z,59.25
2018-03-06T23:16:09.359Z,58.70
2018-03-06T23:18:38.877Z,56.47
2018-03-06T23:21:08.854Z,53.63
2018-03-06T23:23:39.724Z,55.95
2018-03-06T23:26:09.233Z,55.85
2018-03-06T23:28:41.325Z,54.55
2018-03-06T23:31:14.276Z,57.15
2018-03-06T23:33:43.891Z,55.75
2018-03-06T23:36:13.857Z,57.42
2018-03-06T23:41:20.467Z,54.53
2018-03-06T23:43:50.494Z,55.80
2018-03-06T23:46:22.376Z,56.90
2018-03-06T23:48:52.434Z,58.25
2018-03-06T23:51:24.154Z,56.58
2018-03-06T23:53:53.827Z,56.00
2018-03-06T23:56:23.778Z,58.47
2018-03-06T23:58:54.234Z,56.90
